createdAt,value
2023-01-09T00:00:58.057Z,13.67
2023-01-09T00:03:25.252Z,12.67
2023-01-09T00:05:52.538Z,13.03
2023-01-09T00:08:19.869Z,13.13
2023-01-09T00:10:49.642Z,11.60
2023-01-09T00:13:18.382Z,13.73
2023-01-09T00:15:45.718Z,12.70
2023-01-09T00:18:13.151Z,12.07
2023-01-09T00:20:40.519Z,12.73
2023-01-09T00:23:07.728Z,10.23
2023-01-09T00:25:35.961Z,11.73
2023-01-09T00:28:03.391Z,10.47
2023-01-09T00:30:30.691Z,9.03
2023-01-09T00:32:57.844Z,12.17
2023-01-09T00:35:26.726Z,10.40
2023-01-09T00:37:54.002Z,11.53
2023-01-09T00:40:21.795Z,12.13
2023-01-09T00:42:55.280Z,9.90
2023-01-09T00:45:29.164Z,11.70
2023-01-09T00:48:02.980Z,10.37
2023-01-09T00:50:32.208Z,10.30
2023-01-09T00:53:05.368Z,10.70
2023-01-09T00:55:34.530Z,10.77
2023-01-09T00:58:03.095Z,11.57
2023-01-09T01:00:30.291Z,10.57
2023-01-09T01:02:57.615Z,10.83
2023-01-09T01:05:43.862Z,11.13
2023-01-09T01:08:15.456Z,10.60
2023-01-09T01:10:43.241Z,9.88
2023-01-09T01:13:10.625Z,10.00
2023-01-09T01:15:42.650Z,9.67
2023-01-09T01:18:10.969Z,9.70
2023-01-09T01:20:44.010Z,8.70
2023-01-09T01:23:11.413Z,7.90
2023-01-09T01:25:42.612Z,9.00
2023-01-09T01:28:10.717Z,6.47
2023-01-09T01:30:39.643Z,8.40
2023-01-09T01:33:07.347Z,8.13
2023-01-09T01:35:34.550Z,8.60
2023-01-09T01:38:01.795Z,7.80
2023-01-09T01:40:29.876Z,8.17
2023-01-09T01:42:57.133Z,7.07
2023-01-09T01:45:29.073Z,9.23
2023-01-09T01:50:34.341Z,5.90
2023-01-09T01:53:28.570Z,8.10
2023-01-09T01:56:15.967Z,6.60
2023-01-09T01:58:55.412Z,8.13
2023-01-09T02:01:24.745Z,8.67
2023-01-09T02:03:55.543Z,7.93
2023-01-09T02:06:22.942Z,8.33
2023-01-09T02:08:50.661Z,7.67
2023-01-09T02:11:20.427Z,6.97
2023-01-09T02:13:48.326Z,7.83
2023-01-09T02:16:30.924Z,8.33
2023-01-09T02:19:25.803Z,9.00
2023-01-09T02:22:20.419Z,8.77
2023-01-09T02:25:04.155Z,5.60
2023-01-09T02:27:34.568Z,7.03
2023-01-09T02:30:52.435Z,6.90
2023-01-09T02:33:30.146Z,7.53
2023-01-09T02:36:47.430Z,7.27
2023-01-09T02:39:31.300Z,7.37
2023-01-09T02:42:09.294Z,8.53
2023-01-09T02:44:37.127Z,8.03
2023-01-09T02:47:16.123Z,8.13
2023-01-09T02:50:04.995Z,6.40
2023-01-09T02:53:04.263Z,6.57
2023-01-09T02:55:31.647Z,7.00
2023-01-09T02:58:02.042Z,8.60
2023-01-09T03:00:41.927Z,7.33
2023-01-09T03:03:17.768Z,7.10
2023-01-09T03:06:27.723Z,6.93
2023-01-09T03:08:59.463Z,5.70
2023-01-09T03:11:31.452Z,8.40
2023-01-09T03:14:07.107Z,6.20
2023-01-09T03:16:38.844Z,7.33
2023-01-09T03:21:36.020Z,7.63
2023-01-09T03:24:03.305Z,7.10
2023-01-09T03:26:31.232Z,8.43
2023-01-09T03:28:59.629Z,7.13
2023-01-09T03:31:26.843Z,8.53
2023-01-09T03:33:54.282Z,6.20
2023-01-09T03:36:22.447Z,8.83
2023-01-09T03:38:49.912Z,6.90
2023-01-09T03:41:17.480Z,7.90
2023-01-09T03:43:44.898Z,8.50
2023-01-09T03:46:12.400Z,5.87
2023-01-09T03:48:39.513Z,6.90
2023-01-09T03:51:06.709Z,6.93
2023-01-09T03:53:33.877Z,7.57
2023-01-09T03:56:00.931Z,8.63
2023-01-09T03:58:28.640Z,8.27
2023-01-09T04:01:01.662Z,8.03
2023-01-09T04:03:29.386Z,7.10
2023-01-09T04:05:56.959Z,8.30
2023-01-09T04:08:24.446Z,8.03
2023-01-09T04:10:52.139Z,8.10
2023-01-09T04:13:20.148Z,7.07
2023-01-09T04:15:47.253Z,5.97
2023-01-09T04:18:14.912Z,7.13
2023-01-09T04:20:42.866Z,8.00
2023-01-09T04:23:10.363Z,7.17
2023-01-09T04:25:37.438Z,6.90
2023-01-09T04:28:04.805Z,7.53
2023-01-09T04:30:32.321Z,6.87
2023-01-09T04:32:59.354Z,6.73
2023-01-09T04:35:26.573Z,5.20
2023-01-09T04:37:54.108Z,6.03
2023-01-09T04:40:21.413Z,7.47
2023-01-09T04:42:48.969Z,7.53
2023-01-09T04:45:17.353Z,5.87
2023-01-09T04:47:45.118Z,6.47
2023-01-09T04:50:13.227Z,6.00
2023-01-09T04:52:40.852Z,5.60
2023-01-09T04:55:09.234Z,7.97
2023-01-09T04:57:37.205Z,5.70
2023-01-09T05:00:09.866Z,5.93
2023-01-09T05:02:37.689Z,5.10
2023-01-09T05:05:06.156Z,4.10
2023-01-09T05:07:33.644Z,5.20
2023-01-09T05:10:01.262Z,6.03
2023-01-09T05:12:28.958Z,5.97
2023-01-09T05:14:57.886Z,5.53
2023-01-09T05:17:25.415Z,6.93
2023-01-09T05:19:52.837Z,6.47
2023-01-09T05:22:19.868Z,6.87
2023-01-09T05:24:47.119Z,7.67
2023-01-09T05:27:14.366Z,4.97
2023-01-09T05:29:41.912Z,6.13
2023-01-09T05:32:09.333Z,6.33
2023-01-09T05:34:36.471Z,6.63
2023-01-09T05:37:03.655Z,5.47
2023-01-09T05:39:31.170Z,6.27
2023-01-09T05:41:58.736Z,4.87
2023-01-09T05:44:26.144Z,6.30
2023-01-09T05:46:53.605Z,4.70
2023-01-09T05:49:20.702Z,6.63
2023-01-09T05:51:48.158Z,6.03
2023-01-09T05:54:15.404Z,4.80
2023-01-09T05:56:42.970Z,5.20
2023-01-09T05:59:10.535Z,5.97
2023-01-09T06:01:37.933Z,5.33
2023-01-09T06:04:05.360Z,6.77
2023-01-09T06:06:32.960Z,6.97
2023-01-09T06:09:00.008Z,5.77
2023-01-09T06:11:27.148Z,5.20
2023-01-09T06:13:54.194Z,6.13
2023-01-09T06:16:21.308Z,6.50
2023-01-09T06:18:48.939Z,5.67
2023-01-09T06:21:16.180Z,6.63
2023-01-09T06:23:43.251Z,5.43
2023-01-09T06:26:10.386Z,5.00
2023-01-09T06:28:37.582Z,6.03
2023-01-09T06:31:05.351Z,6.27
2023-01-09T06:33:32.879Z,5.43
2023-01-09T06:35:59.968Z,4.87
2023-01-09T06:38:27.238Z,5.97
2023-01-09T06:40:54.361Z,5.60
2023-01-09T06:43:21.564Z,5.63
2023-01-09T06:45:48.743Z,4.77
2023-01-09T06:48:15.983Z,4.80
2023-01-09T06:50:43.125Z,5.30
2023-01-09T06:53:10.907Z,4.77
2023-01-09T06:55:38.128Z,5.20
2023-01-09T06:58:05.969Z,5.20
2023-01-09T07:00:33.131Z,5.77
2023-01-09T07:03:00.669Z,6.40
2023-01-09T07:05:27.843Z,7.10
2023-01-09T07:07:54.970Z,6.33
2023-01-09T07:10:22.143Z,7.63
2023-01-09T07:12:49.487Z,6.33
2023-01-09T07:15:16.767Z,6.23
2023-01-09T07:17:45.060Z,5.87
2023-01-09T07:20:12.596Z,6.73
2023-01-09T07:22:39.685Z,6.30
2023-01-09T07:25:07.042Z,6.47
2023-01-09T07:27:34.225Z,6.37
2023-01-09T07:30:01.438Z,4.57
2023-01-09T07:32:31.057Z,5.90
2023-01-09T07:34:58.320Z,5.07
2023-01-09T07:37:25.946Z,6.63
2023-01-09T07:39:53.691Z,6.00
2023-01-09T07:42:20.933Z,6.43
2023-01-09T07:44:48.062Z,6.20
2023-01-09T07:47:15.262Z,6.07
2023-01-09T07:49:42.573Z,7.03
2023-01-09T07:52:09.807Z,7.00
2023-01-09T07:54:37.012Z,7.37
2023-01-09T07:57:04.352Z,6.27
2023-01-09T07:59:31.568Z,7.77
2023-01-09T08:01:58.762Z,6.43
2023-01-09T08:04:26.014Z,5.83
2023-01-09T08:06:53.176Z,7.87
2023-01-09T08:09:20.349Z,5.40
2023-01-09T08:11:47.500Z,7.50
2023-01-09T08:14:14.715Z,7.10
2023-01-09T08:16:41.876Z,7.20
2023-01-09T08:19:12.212Z,5.80
2023-01-09T08:21:40.019Z,6.83
2023-01-09T08:24:07.702Z,6.10
2023-01-09T08:26:34.805Z,6.30
2023-01-09T08:29:01.940Z,6.30
2023-01-09T08:31:29.285Z,5.40
2023-01-09T08:33:56.490Z,7.37
2023-01-09T08:36:23.726Z,6.17
2023-01-09T08:38:50.907Z,6.80
2023-01-09T08:41:36.601Z,6.20
2023-01-09T08:44:22.453Z,5.03
2023-01-09T08:47:07.819Z,6.30
2023-01-09T08:49:37.275Z,5.57
2023-01-09T08:52:05.976Z,6.23
2023-01-09T08:54:36.952Z,7.57
2023-01-09T08:57:04.160Z,7.03
2023-01-09T08:59:31.314Z,5.13
2023-01-09T09:01:58.650Z,6.10
2023-01-09T09:04:26.157Z,6.37
2023-01-09T09:06:53.514Z,6.00
2023-01-09T09:09:20.604Z,6.50
2023-01-09T09:11:47.776Z,5.37
2023-01-09T09:14:33.716Z,5.73
2023-01-09T09:17:00.992Z,6.57
2023-01-09T09:19:28.189Z,6.60
2023-01-09T09:21:55.348Z,6.40
2023-01-09T09:24:22.484Z,6.27
2023-01-09T09:26:49.567Z,5.10
2023-01-09T09:29:16.724Z,5.87
2023-01-09T09:31:43.985Z,5.07
2023-01-09T09:34:11.278Z,6.27
2023-01-09T09:36:38.497Z,5.40
2023-01-09T09:39:07.589Z,5.73
2023-01-09T09:42:34.083Z,5.93
2023-01-09T09:45:21.246Z,5.30
2023-01-09T09:47:57.527Z,4.70
2023-01-09T09:51:02.535Z,4.40
2023-01-09T09:53:51.774Z,5.37
2023-01-09T09:56:23.856Z,6.23
2023-01-09T09:59:05.470Z,5.73
2023-01-09T10:01:50.975Z,5.85
2023-01-09T10:04:20.274Z,6.00
2023-01-09T10:07:09.987Z,4.10
2023-01-09T10:09:54.764Z,5.63
2023-01-09T10:12:30.079Z,4.77
2023-01-09T10:15:02.533Z,4.83
2023-01-09T10:17:39.941Z,5.30
2023-01-09T10:20:25.353Z,5.67
2023-01-09T10:23:06.300Z,4.13
2023-01-09T10:25:45.425Z,5.27
2023-01-09T10:28:50.141Z,4.93
2023-01-09T10:31:37.674Z,5.43
2023-01-09T10:34:22.771Z,5.60
2023-01-09T10:37:10.745Z,4.10
2023-01-09T10:40:01.570Z,4.47
2023-01-09T10:43:06.446Z,5.73
2023-01-09T10:48:11.924Z,6.95
2023-01-09T10:50:41.942Z,6.73
2023-01-09T10:53:21.968Z,7.10
2023-01-09T10:55:54.558Z,7.77
2023-01-09T10:58:23.362Z,6.00
2023-01-09T11:00:51.434Z,7.77
2023-01-09T11:03:21.760Z,6.90
2023-01-09T11:05:53.079Z,6.90
2023-01-09T11:08:43.061Z,7.07
2023-01-09T11:11:10.878Z,7.33
2023-01-09T11:13:43.657Z,7.30
2023-01-09T11:16:24.104Z,6.60
2023-01-09T11:19:00.961Z,6.70
2023-01-09T11:21:35.927Z,6.30
2023-01-09T11:24:21.530Z,6.70
2023-01-09T11:26:53.122Z,6.83
2023-01-09T11:29:26.953Z,6.07
2023-01-09T11:31:59.677Z,5.67
2023-01-09T11:34:30.542Z,6.07
2023-01-09T11:37:14.164Z,5.83
2023-01-09T11:39:48.136Z,5.80
2023-01-09T11:42:44.417Z,5.40
2023-01-09T11:45:30.246Z,4.80
2023-01-09T11:47:58.227Z,4.70
2023-01-09T11:50:28.258Z,5.33
2023-01-09T11:53:16.167Z,5.37
2023-01-09T11:55:45.346Z,4.80
2023-01-09T11:58:18.267Z,4.77
2023-01-09T12:01:27.366Z,5.57
2023-01-09T12:04:10.613Z,10.57
2023-01-09T12:06:52.826Z,11.50
2023-01-09T12:09:39.994Z,7.77
2023-01-09T12:12:45.295Z,4.03
2023-01-09T12:15:27.381Z,5.07
2023-01-09T12:20:54.111Z,5.37
2023-01-09T12:23:27.067Z,4.97
2023-01-09T12:26:06.010Z,35.00
2023-01-09T12:28:38.691Z,31.13
2023-01-09T12:31:20.871Z,18.17
2023-01-09T12:34:03.241Z,23.77
2023-01-09T12:36:59.150Z,15.90
2023-01-09T12:39:49.944Z,11.63
2023-01-09T12:42:17.418Z,4.50
2023-01-09T12:44:53.256Z,5.20
2023-01-09T12:47:45.638Z,4.63
2023-01-09T12:50:31.063Z,4.13
2023-01-09T12:53:23.081Z,3.40
2023-01-09T12:56:18.554Z,3.40
2023-01-09T12:58:50.110Z,3.50
2023-01-09T13:01:28.804Z,3.35
2023-01-09T13:04:13.050Z,4.87
2023-01-09T13:06:51.639Z,3.20
2023-01-09T13:09:39.843Z,4.03
2023-01-09T13:12:21.956Z,3.40
2023-01-09T13:14:49.162Z,3.23
2023-01-09T13:17:40.951Z,3.20
2023-01-09T13:20:26.184Z,3.30
2023-01-09T13:22:55.179Z,3.27
2023-01-09T13:25:31.313Z,4.00
2023-01-09T13:28:03.882Z,3.10
2023-01-09T13:30:51.649Z,3.53
2023-01-09T13:33:24.176Z,3.67
2023-01-09T13:35:57.572Z,2.50
2023-01-09T13:38:27.514Z,3.83
2023-01-09T13:41:29.886Z,3.20
2023-01-09T13:44:18.014Z,3.53
2023-01-09T13:46:47.685Z,3.40
2023-01-09T13:49:32.698Z,2.77
2023-01-09T13:52:33.843Z,3.73
2023-01-09T13:55:03.473Z,3.47
2023-01-09T13:57:36.277Z,4.37
2023-01-09T14:00:15.463Z,3.33
2023-01-09T14:02:51.800Z,3.13
2023-01-09T14:05:24.950Z,3.23
2023-01-09T14:08:02.820Z,4.33
2023-01-09T14:10:37.699Z,3.40
2023-01-09T14:13:26.692Z,4.43
2023-01-09T14:16:09.559Z,3.00
2023-01-09T14:18:40.585Z,3.23
2023-01-09T14:21:11.400Z,3.87
2023-01-09T14:24:06.913Z,3.07
2023-01-09T14:26:46.344Z,3.40
2023-01-09T14:29:31.682Z,2.87
2023-01-09T14:32:23.712Z,2.53
2023-01-09T14:37:21.590Z,3.03
2023-01-09T14:39:50.627Z,3.37
2023-01-09T14:42:35.142Z,3.50
2023-01-09T14:45:14.335Z,3.73
2023-01-09T14:47:46.822Z,3.20
2023-01-09T14:50:46.527Z,3.63
2023-01-09T14:53:24.780Z,3.90
2023-01-09T14:55:59.324Z,3.27
2023-01-09T14:58:38.874Z,3.83
2023-01-09T15:01:10.493Z,3.97
2023-01-09T15:06:20.922Z,2.33
2023-01-09T15:08:56.276Z,3.67
2023-01-09T15:11:23.428Z,2.90
2023-01-09T15:13:53.353Z,3.67
2023-01-09T15:16:23.387Z,3.23
2023-01-09T15:19:01.238Z,4.10
2023-01-09T15:21:33.074Z,3.80
2023-01-09T15:24:27.143Z,2.83
2023-01-09T15:26:59.574Z,4.07
2023-01-09T15:29:28.281Z,3.60
2023-01-09T15:32:05.230Z,2.10
2023-01-09T15:34:33.263Z,4.07
2023-01-09T15:37:01.149Z,2.83
2023-01-09T15:39:39.332Z,3.10
2023-01-09T15:42:41.258Z,2.43
2023-01-09T15:45:26.210Z,3.10
2023-01-09T15:47:53.940Z,2.97
2023-01-09T15:50:30.276Z,2.97
2023-01-09T15:52:57.598Z,3.33
2023-01-09T15:55:35.286Z,2.50
2023-01-09T15:58:04.215Z,3.37
2023-01-09T16:00:41.980Z,2.40
2023-01-09T16:03:18.784Z,3.03
2023-01-09T16:05:53.002Z,3.43
2023-01-09T16:08:26.795Z,3.07
2023-01-09T16:10:57.409Z,2.57
2023-01-09T16:13:26.303Z,3.83
2023-01-09T16:15:55.847Z,3.37
2023-01-09T16:18:29.557Z,3.17
2023-01-09T16:21:22.070Z,3.73
2023-01-09T16:24:01.570Z,3.50
2023-01-09T16:26:30.870Z,3.57
2023-01-09T16:29:47.318Z,3.17
2023-01-09T16:32:23.268Z,3.17
2023-01-09T16:35:06.124Z,3.30
2023-01-09T16:37:33.979Z,3.93
2023-01-09T16:40:22.578Z,3.30
2023-01-09T16:43:00.638Z,3.30
2023-01-09T16:45:34.670Z,3.63
2023-01-09T16:48:03.461Z,2.27
2023-01-09T16:50:30.763Z,3.40
2023-01-09T16:52:58.351Z,4.00
2023-01-09T16:55:25.643Z,2.87
2023-01-09T16:57:52.834Z,3.17
2023-01-09T17:00:21.400Z,3.03
2023-01-09T17:02:48.599Z,3.83
2023-01-09T17:05:15.797Z,3.17
2023-01-09T17:07:43.059Z,3.53
2023-01-09T17:10:20.458Z,3.67
2023-01-09T17:12:48.016Z,2.90
2023-01-09T17:15:15.352Z,2.97
2023-01-09T17:17:42.482Z,3.43
2023-01-09T17:20:19.262Z,3.00
2023-01-09T17:22:46.737Z,2.87
2023-01-09T17:25:35.193Z,3.27
2023-01-09T17:28:22.349Z,2.23
2023-01-09T17:30:49.481Z,3.63
2023-01-09T17:33:20.161Z,3.63
2023-01-09T17:35:47.814Z,3.70
2023-01-09T17:38:16.153Z,3.20
2023-01-09T17:40:44.076Z,3.10
2023-01-09T17:43:12.260Z,2.70
2023-01-09T17:45:43.440Z,3.83
2023-01-09T17:48:18.930Z,2.75
2023-01-09T17:50:47.073Z,3.30
2023-01-09T17:53:15.053Z,2.93
2023-01-09T17:55:42.398Z,2.43
2023-01-09T17:58:27.132Z,3.30
2023-01-09T18:00:54.741Z,3.33
2023-01-09T18:03:24.442Z,3.70
2023-01-09T18:05:52.087Z,2.20
2023-01-09T18:08:19.253Z,4.30
2023-01-09T18:10:48.688Z,3.20
2023-01-09T18:13:17.203Z,2.63
2023-01-09T18:15:45.307Z,3.30
2023-01-09T18:18:13.149Z,3.10
2023-01-09T18:20:41.289Z,2.53
2023-01-09T18:23:11.068Z,2.90
2023-01-09T18:25:42.624Z,2.70
2023-01-09T18:28:11.433Z,3.55
2023-01-09T18:30:38.764Z,4.13
2023-01-09T18:33:06.091Z,3.03
2023-01-09T18:35:34.098Z,3.10
2023-01-09T18:38:01.201Z,3.03
2023-01-09T18:40:28.333Z,4.20
2023-01-09T18:42:56.568Z,3.47
2023-01-09T18:45:23.746Z,3.20
2023-01-09T18:47:51.004Z,2.83
2023-01-09T18:50:18.298Z,3.60
2023-01-09T18:52:45.448Z,2.90
2023-01-09T18:55:12.757Z,3.37
2023-01-09T18:57:40.183Z,2.53
2023-01-09T19:00:08.248Z,3.13
2023-01-09T19:02:35.471Z,2.67
2023-01-09T19:05:02.714Z,2.90
2023-01-09T19:07:31.358Z,2.93
2023-01-09T19:09:58.619Z,2.67
2023-01-09T19:12:25.789Z,2.77
2023-01-09T19:14:53.161Z,3.67
2023-01-09T19:17:20.923Z,3.00
2023-01-09T19:19:48.406Z,3.23
2023-01-09T19:22:15.848Z,2.23
2023-01-09T19:24:43.035Z,2.83
2023-01-09T19:27:10.127Z,2.10
2023-01-09T19:29:37.337Z,3.40
2023-01-09T19:32:08.547Z,4.33
2023-01-09T19:34:35.831Z,3.45
2023-01-09T19:37:02.974Z,2.50
2023-01-09T19:39:30.136Z,3.63
2023-01-09T19:41:57.538Z,3.47
2023-01-09T19:44:25.257Z,2.67
2023-01-09T19:46:52.483Z,3.43
2023-01-09T19:49:19.690Z,1.97
2023-01-09T19:51:46.805Z,2.07
2023-01-09T19:54:13.940Z,2.97
2023-01-09T19:56:43.991Z,4.37
2023-01-09T19:59:12.371Z,2.50
2023-01-09T20:01:41.748Z,3.10
2023-01-09T20:04:13.878Z,2.63
2023-01-09T20:06:44.055Z,2.50
2023-01-09T20:09:12.450Z,3.80
2023-01-09T20:11:41.405Z,2.77
2023-01-09T20:14:14.006Z,3.07
2023-01-09T20:16:42.341Z,2.57
2023-01-09T20:19:11.825Z,3.43
2023-01-09T20:21:39.356Z,2.97
2023-01-09T20:24:07.429Z,2.10
2023-01-09T20:26:36.468Z,2.80
2023-01-09T20:29:04.365Z,2.70
2023-01-09T20:31:33.045Z,2.90
2023-01-09T20:34:00.443Z,2.63
2023-01-09T20:36:30.334Z,2.63
2023-01-09T20:38:59.841Z,2.50
2023-01-09T20:41:27.581Z,2.27
2023-01-09T20:44:07.276Z,2.60
2023-01-09T20:46:48.194Z,1.73
2023-01-09T20:49:18.438Z,2.42
2023-01-09T20:51:50.944Z,1.97
2023-01-09T20:54:21.396Z,3.63
2023-01-09T20:56:48.619Z,2.17
2023-01-09T20:59:20.235Z,2.57
2023-01-09T21:04:15.270Z,2.60
2023-01-09T21:06:45.315Z,2.57
2023-01-09T21:09:12.725Z,3.33
2023-01-09T21:11:40.065Z,3.27
2023-01-09T21:14:07.104Z,2.20
2023-01-09T21:16:34.260Z,2.67
2023-01-09T21:19:01.382Z,2.97
2023-01-09T21:21:29.461Z,2.50
2023-01-09T21:23:59.137Z,3.23
2023-01-09T21:26:29.138Z,2.37
2023-01-09T21:28:58.183Z,3.50
2023-01-09T21:31:33.678Z,2.83
2023-01-09T21:34:07.097Z,2.20
2023-01-09T21:36:35.692Z,2.17
2023-01-09T21:39:07.460Z,3.07
2023-01-09T21:41:54.174Z,2.53
2023-01-09T21:44:39.805Z,2.47
2023-01-09T21:47:06.935Z,2.00
2023-01-09T21:49:36.093Z,3.17
2023-01-09T21:52:04.279Z,2.83
2023-01-09T21:54:32.365Z,2.93
2023-01-09T21:56:59.977Z,3.83
2023-01-09T21:59:27.398Z,3.13
2023-01-09T22:01:54.561Z,2.37
2023-01-09T22:04:24.429Z,2.40
2023-01-09T22:06:51.753Z,2.40
2023-01-09T22:09:18.901Z,3.07
2023-01-09T22:11:46.316Z,2.63
2023-01-09T22:14:18.531Z,2.70
2023-01-09T22:16:46.522Z,2.43
2023-01-09T22:19:17.467Z,3.13
2023-01-09T22:21:44.584Z,3.13
2023-01-09T22:24:17.531Z,2.20
2023-01-09T22:26:45.302Z,3.30
2023-01-09T22:29:12.559Z,3.03
2023-01-09T22:31:40.862Z,2.53
2023-01-09T22:34:11.684Z,2.97
2023-01-09T22:36:38.989Z,2.20
2023-01-09T22:39:06.240Z,2.67
2023-01-09T22:41:33.607Z,3.20
2023-01-09T22:44:00.787Z,3.03
2023-01-09T22:46:27.916Z,2.60
2023-01-09T22:48:54.943Z,2.27
2023-01-09T22:51:22.260Z,2.37
2023-01-09T22:53:50.116Z,2.40
2023-01-09T22:56:19.936Z,2.77
2023-01-09T22:58:55.848Z,1.50
2023-01-09T23:01:23.024Z,2.90
2023-01-09T23:03:50.546Z,2.80
2023-01-09T23:06:20.386Z,2.80
2023-01-09T23:08:51.132Z,3.00
2023-01-09T23:11:46.412Z,3.10
2023-01-09T23:14:13.598Z,2.80
2023-01-09T23:16:41.450Z,2.50
2023-01-09T23:19:17.483Z,3.43
2023-01-09T23:21:45.201Z,2.37
2023-01-09T23:24:14.026Z,3.10
2023-01-09T23:26:42.932Z,3.13
2023-01-09T23:29:11.037Z,2.37
2023-01-09T23:31:38.344Z,2.33
2023-01-09T23:34:08.262Z,3.23
2023-01-09T23:36:36.181Z,3.00
2023-01-09T23:39:08.792Z,2.03
2023-01-09T23:41:55.840Z,2.93
2023-01-09T23:44:23.585Z,2.80
2023-01-09T23:46:50.964Z,2.47
2023-01-09T23:49:18.145Z,2.63
2023-01-09T23:51:46.643Z,2.33
2023-01-09T23:54:14.570Z,3.00
2023-01-09T23:56:41.727Z,2.00
2023-01-09T23:59:12.011Z,2.60
